createdAt,value
2022-11-16T00:01:06.971Z,99722.06
2022-11-16T00:03:34.403Z,99719.13
2022-11-16T00:06:03.959Z,99724.41
2022-11-16T00:08:33.409Z,99717.56
2022-11-16T00:11:09.267Z,99716.25
2022-11-16T00:13:37.854Z,99715.47
2022-11-16T00:16:06.191Z,99708.34
2022-11-16T00:18:34.338Z,99711.75
2022-11-16T00:21:04.191Z,99715.19
2022-11-16T00:23:30.980Z,99703.09
2022-11-16T00:26:06.266Z,99698.91
2022-11-16T00:28:33.311Z,99702.56
2022-11-16T00:31:02.412Z,99701.78
2022-11-16T00:33:29.835Z,99693.13
2022-11-16T00:35:57.160Z,99690.47
2022-11-16T00:38:24.061Z,99691.84
2022-11-16T00:40:50.943Z,99692.63
2022-11-16T00:43:17.599Z,99688.91
2022-11-16T00:45:44.833Z,99688.91
2022-11-16T00:48:13.028Z,99681.03
2022-11-16T00:50:39.772Z,99693.13
2022-11-16T00:53:07.373Z,99693.13
2022-11-16T00:55:34.491Z,99689.69
2022-11-16T00:58:01.142Z,99685.75
2022-11-16T01:00:27.806Z,99687.00
2022-11-16T01:02:54.718Z,99682.03
2022-11-16T01:05:22.505Z,99686.22
2022-11-16T01:07:50.368Z,99673.06
2022-11-16T01:10:20.885Z,99671.50
2022-11-16T01:12:49.538Z,99676.47
2022-11-16T01:15:19.110Z,99681.47
2022-11-16T01:17:46.304Z,99680.38
2022-11-16T01:20:16.350Z,99679.34
2022-11-16T01:22:44.256Z,99682.75
2022-11-16T01:25:12.686Z,99676.19
2022-11-16T01:27:41.297Z,99673.38
2022-11-16T01:30:11.151Z,99686.22
2022-11-16T01:32:38.255Z,99676.78
2022-11-16T01:35:06.558Z,99686.00
2022-11-16T01:37:33.653Z,99679.47
2022-11-16T01:40:00.508Z,99685.22
2022-11-16T01:42:30.816Z,99690.47
2022-11-16T01:45:00.134Z,99690.47
2022-11-16T01:47:27.556Z,99685.22
2022-11-16T01:50:09.854Z,99673.13
2022-11-16T01:52:44.988Z,99669.22
2022-11-16T01:55:12.706Z,99670.78
2022-11-16T01:57:43.943Z,99676.84
2022-11-16T02:00:13.276Z,99666.59
2022-11-16T02:02:40.341Z,99665.78
2022-11-16T02:05:09.292Z,99658.97
2022-11-16T02:08:38.820Z,99658.41
2022-11-16T02:11:36.217Z,99650.53
2022-11-16T02:14:43.348Z,99649.44
2022-11-16T02:17:32.285Z,99648.38
2022-11-16T02:20:29.673Z,99641.06
2022-11-16T02:23:36.775Z,99642.63
2022-11-16T02:26:18.116Z,99648.38
2022-11-16T02:29:09.406Z,99640.00
2022-11-16T02:31:46.120Z,99628.47
2022-11-16T02:34:17.174Z,99635.88
2022-11-16T02:36:48.394Z,99633.72
2022-11-16T02:39:22.203Z,99627.91
2022-11-16T02:41:52.535Z,99626.31
2022-11-16T02:44:26.574Z,99631.59
2022-11-16T02:46:59.082Z,99621.34
2022-11-16T02:49:31.022Z,99624.75
2022-11-16T02:51:59.198Z,99631.09
2022-11-16T02:54:25.888Z,99622.44
2022-11-16T02:56:57.422Z,99615.59
2022-11-16T02:59:42.598Z,99614.03
2022-11-16T03:02:11.864Z,99620.88
2022-11-16T03:04:48.490Z,99628.47
2022-11-16T03:07:20.452Z,99618.22
2022-11-16T03:09:51.317Z,99615.59
2022-11-16T03:12:26.458Z,99608.00
2022-11-16T03:15:01.429Z,99615.09
2022-11-16T03:17:36.741Z,99622.19
2022-11-16T03:20:09.554Z,99616.38
2022-11-16T03:22:47.048Z,99617.22
2022-11-16T03:25:19.980Z,99615.38
2022-11-16T03:27:57.581Z,99613.25
2022-11-16T03:30:27.569Z,99619.78
2022-11-16T03:33:00.009Z,99617.94
2022-11-16T03:35:35.223Z,99611.59
2022-11-16T03:38:07.580Z,99618.44
2022-11-16T03:40:37.504Z,99621.06
2022-11-16T03:43:07.745Z,99618.44
2022-11-16T03:45:37.699Z,99626.56
2022-11-16T03:48:06.888Z,99628.88
2022-11-16T03:50:33.799Z,99628.41
2022-11-16T03:53:00.494Z,99632.94
2022-11-16T03:55:27.193Z,99638.69
2022-11-16T03:57:53.848Z,99639.56
2022-11-16T04:00:20.710Z,99641.13
2022-11-16T04:02:47.344Z,99637.19
2022-11-16T04:05:32.602Z,99640.56
2022-11-16T04:08:18.110Z,99646.81
2022-11-16T04:11:03.604Z,99646.34
2022-11-16T04:13:51.742Z,99647.97
2022-11-16T04:16:37.805Z,99647.97
2022-11-16T04:19:23.105Z,99646.41
2022-11-16T04:22:15.419Z,99653.00
2022-11-16T04:24:48.769Z,99657.13
2022-11-16T04:27:35.824Z,99657.91
2022-11-16T04:30:04.023Z,99665.78
2022-11-16T04:32:49.744Z,99660.03
2022-11-16T04:35:35.272Z,99664.22
2022-11-16T04:38:02.031Z,99664.75
2022-11-16T04:40:29.483Z,99655.50
2022-11-16T04:42:57.575Z,99664.47
2022-11-16T04:45:45.230Z,99653.88
2022-11-16T04:48:13.588Z,99657.28
2022-11-16T04:50:41.129Z,99664.09
2022-11-16T04:53:08.816Z,99674.63
2022-11-16T04:55:36.025Z,99681.47
2022-11-16T04:58:03.842Z,99678.03
2022-11-16T05:00:31.026Z,99671.78
2022-11-16T05:03:01.286Z,99679.59
2022-11-16T05:05:28.790Z,99673.78
2022-11-16T05:07:55.691Z,99675.56
2022-11-16T05:10:22.521Z,99684.53
2022-11-16T05:12:49.356Z,99682.19
2022-11-16T05:15:17.638Z,99691.44
2022-11-16T05:17:44.335Z,99692.28
2022-11-16T05:20:29.914Z,99694.41
2022-11-16T05:22:58.494Z,99686.78
2022-11-16T05:25:26.199Z,99702.06
2022-11-16T05:27:53.693Z,99705.25
2022-11-16T05:30:20.445Z,99708.97
2022-11-16T05:32:47.305Z,99707.41
2022-11-16T05:35:14.384Z,99714.28
2022-11-16T05:37:41.192Z,99715.88
2022-11-16T05:40:08.667Z,99715.94
2022-11-16T05:42:35.291Z,99715.97
2022-11-16T05:45:02.004Z,99711.56
2022-11-16T05:47:28.660Z,99721.72
2022-11-16T05:49:55.282Z,99718.63
2022-11-16T05:52:22.131Z,99710.00
2022-11-16T05:54:49.052Z,99708.25
2022-11-16T05:57:15.898Z,99709.41
2022-11-16T05:59:42.662Z,99717.13
2022-11-16T06:02:09.796Z,99727.19
2022-11-16T06:04:36.464Z,99735.44
2022-11-16T06:07:03.325Z,99731.84
2022-11-16T06:09:29.987Z,99731.34
2022-11-16T06:11:56.662Z,99728.03
2022-11-16T06:14:23.488Z,99732.59
2022-11-16T06:16:50.131Z,99737.59
2022-11-16T06:19:16.765Z,99743.16
2022-11-16T06:21:43.636Z,99738.97
2022-11-16T06:24:10.354Z,99748.00
2022-11-16T06:26:37.511Z,99746.22
2022-11-16T06:29:04.764Z,99743.34
2022-11-16T06:31:31.771Z,99746.50
2022-11-16T06:33:58.628Z,99754.91
2022-11-16T06:36:25.273Z,99763.31
2022-11-16T06:38:51.989Z,99752.09
2022-11-16T06:41:19.357Z,99765.25
2022-11-16T06:43:46.043Z,99770.22
2022-11-16T06:46:12.692Z,99769.72
2022-11-16T06:48:39.497Z,99777.09
2022-11-16T06:51:06.307Z,99777.09
2022-11-16T06:53:33.111Z,99787.59
2022-11-16T06:56:05.575Z,99792.28
2022-11-16T06:58:32.815Z,99790.72
2022-11-16T07:01:11.259Z,99791.78
2022-11-16T07:03:38.228Z,99796.25
2022-11-16T07:06:14.578Z,99800.69
2022-11-16T07:08:41.381Z,99803.56
2022-11-16T07:11:11.121Z,99805.34
2022-11-16T07:13:38.515Z,99801.38
2022-11-16T07:16:07.707Z,99802.19
2022-11-16T07:18:36.283Z,99798.00
2022-11-16T07:21:15.679Z,99800.63
2022-11-16T07:23:42.727Z,99807.72
2022-11-16T07:26:10.350Z,99813.13
2022-11-16T07:28:37.565Z,99821.59
2022-11-16T07:31:13.093Z,99826.56
2022-11-16T07:33:40.653Z,99824.22
2022-11-16T07:36:12.691Z,99827.34
2022-11-16T07:38:40.347Z,99830.50
2022-11-16T07:41:10.383Z,99836.00
2022-11-16T07:43:37.393Z,99839.16
2022-11-16T07:48:57.713Z,99842.06
2022-11-16T07:51:24.349Z,99846.53
2022-11-16T07:53:58.077Z,99845.97
2022-11-16T07:56:25.386Z,99840.22
2022-11-16T07:58:52.433Z,99842.56
2022-11-16T08:01:19.909Z,99842.56
2022-11-16T08:03:46.995Z,99847.31
2022-11-16T08:06:19.066Z,99854.63
2022-11-16T08:08:45.910Z,99858.81
2022-11-16T08:11:13.229Z,99859.88
2022-11-16T08:13:41.944Z,99861.19
2022-11-16T08:16:14.362Z,99858.81
2022-11-16T08:18:42.137Z,99872.22
2022-11-16T08:21:12.518Z,99870.38
2022-11-16T08:23:44.839Z,99886.63
2022-11-16T08:26:19.730Z,99884.00
2022-11-16T08:28:48.321Z,99886.63
2022-11-16T08:31:18.612Z,99884.53
2022-11-16T08:33:45.306Z,99881.06
2022-11-16T08:36:17.171Z,99878.19
2022-11-16T08:38:45.829Z,99886.56
2022-11-16T08:41:12.821Z,99885.53
2022-11-16T08:43:40.383Z,99889.44
2022-11-16T08:46:10.830Z,99892.06
2022-11-16T08:48:38.338Z,99891.25
2022-11-16T08:51:17.407Z,99894.69
2022-11-16T08:53:47.989Z,99898.59
2022-11-16T08:56:16.365Z,99897.50
2022-11-16T08:58:44.228Z,99903.00
2022-11-16T09:01:14.362Z,99906.94
2022-11-16T09:03:41.889Z,99906.94
2022-11-16T09:06:10.067Z,99910.31
2022-11-16T09:08:39.773Z,99902.41
2022-11-16T09:11:08.876Z,99901.06
2022-11-16T09:13:35.554Z,99903.69
2022-11-16T09:16:02.979Z,99908.97
2022-11-16T09:18:30.519Z,99903.44
2022-11-16T09:20:57.632Z,99907.88
2022-11-16T09:23:25.721Z,99905.78
2022-11-16T09:25:53.567Z,99918.59
2022-11-16T09:28:21.747Z,99923.09
2022-11-16T09:30:51.405Z,99916.22
2022-11-16T09:33:18.624Z,99915.72
2022-11-16T09:35:45.335Z,99925.13
2022-11-16T09:38:17.535Z,99931.69
2022-11-16T09:40:48.969Z,99923.53
2022-11-16T09:43:46.165Z,99935.06
2022-11-16T09:46:33.343Z,99935.56
2022-11-16T09:49:04.952Z,99938.97
2022-11-16T09:51:40.007Z,99943.44
2022-11-16T09:54:16.657Z,99943.72
2022-11-16T09:56:48.147Z,99946.03
2022-11-16T09:59:24.806Z,99942.38
2022-11-16T10:02:14.355Z,99929.44
2022-11-16T10:04:58.937Z,99931.78
2022-11-16T10:07:35.374Z,99938.69
2022-11-16T10:10:02.132Z,99940.28
2022-11-16T10:12:56.337Z,99947.59
2022-11-16T10:15:51.832Z,99939.47
2022-11-16T10:18:53.471Z,99949.13
2022-11-16T10:21:26.055Z,99927.06
2022-11-16T10:24:27.973Z,99932.25
2022-11-16T10:27:12.557Z,99924.91
2022-11-16T10:29:54.023Z,99929.59
2022-11-16T10:32:35.739Z,99929.59
2022-11-16T10:35:14.842Z,99922.44
2022-11-16T10:37:48.698Z,99921.19
2022-11-16T10:40:17.886Z,99915.09
2022-11-16T10:42:54.796Z,99914.28
2022-11-16T10:45:57.911Z,99910.06
2022-11-16T10:49:08.843Z,99901.59
2022-11-16T10:51:35.738Z,99897.41
2022-11-16T10:54:03.120Z,99909.97
2022-11-16T10:56:40.382Z,99906.34
2022-11-16T10:59:09.953Z,99906.25
2022-11-16T11:01:43.565Z,99898.94
2022-11-16T11:04:22.598Z,99907.28
2022-11-16T11:06:52.828Z,99900.16
2022-11-16T11:09:28.876Z,99890.09
2022-11-16T11:12:17.272Z,99900.13
2022-11-16T11:15:11.772Z,99890.69
2022-11-16T11:17:41.357Z,99894.53
2022-11-16T11:20:22.344Z,99892.09
2022-11-16T11:23:04.553Z,99887.59
2022-11-16T11:25:35.706Z,99882.25
2022-11-16T11:28:20.001Z,99876.88
2022-11-16T11:31:01.819Z,99879.53
2022-11-16T11:33:34.811Z,99882.09
2022-11-16T11:36:18.469Z,99876.34
2022-11-16T11:39:01.591Z,99878.28
2022-11-16T11:41:34.520Z,99865.69
2022-11-16T11:44:05.040Z,99857.06
2022-11-16T11:47:23.678Z,99867.38
2022-11-16T11:49:38.274Z,99855.34
2022-11-16T11:52:21.709Z,99845.28
2022-11-16T11:54:52.323Z,99849.56
2022-11-16T11:57:23.843Z,99841.09
2022-11-16T11:59:54.213Z,99833.97
2022-11-16T12:02:37.222Z,99838.94
2022-11-16T12:05:34.857Z,99837.16
2022-11-16T12:08:34.246Z,99848.28
2022-11-16T12:11:20.011Z,99838.06
2022-11-16T12:14:01.192Z,99832.00
2022-11-16T12:17:09.835Z,99840.19
2022-11-16T12:19:57.269Z,99841.81
2022-11-16T12:22:36.717Z,99840.19
2022-11-16T12:25:18.401Z,99844.03
2022-11-16T12:28:11.670Z,99838.47
2022-11-16T12:31:23.697Z,99840.63
2022-11-16T12:34:26.719Z,99834.28
2022-11-16T12:37:15.117Z,99837.44
2022-11-16T12:40:00.266Z,99825.97
2022-11-16T12:42:48.844Z,99831.19
2022-11-16T12:46:06.287Z,99818.34
2022-11-16T12:49:09.115Z,99822.31
2022-11-16T12:51:58.915Z,99810.06
2022-11-16T12:55:26.430Z,99805.69
2022-11-16T12:58:18.631Z,99805.97
2022-11-16T13:01:14.035Z,99809.13
2022-11-16T13:03:56.156Z,99806.72
2022-11-16T13:06:31.869Z,99799.72
2022-11-16T13:09:11.030Z,99793.03
2022-11-16T13:11:49.272Z,99797.72
2022-11-16T13:14:26.410Z,99791.44
2022-11-16T13:16:54.335Z,99784.00
2022-11-16T13:19:21.629Z,99775.25
2022-11-16T13:22:14.034Z,99774.38
2022-11-16T13:24:46.791Z,99779.44
2022-11-16T13:27:37.160Z,99770.69
2022-11-16T13:30:13.391Z,99763.53
2022-11-16T13:33:10.811Z,99772.50
2022-11-16T13:35:38.857Z,99768.44
2022-11-16T13:38:13.148Z,99763.56
2022-11-16T13:40:41.368Z,99773.03
2022-11-16T13:43:10.858Z,99766.91
2022-11-16T13:46:00.751Z,99765.63
2022-11-16T13:48:36.296Z,99752.81
2022-11-16T13:51:08.619Z,99741.78
2022-11-16T13:54:43.874Z,99741.91
2022-11-16T13:56:51.645Z,99733.06
2022-11-16T13:59:26.556Z,99743.84
2022-11-16T14:02:03.365Z,99733.91
2022-11-16T14:04:58.534Z,99739.47
2022-11-16T14:07:32.896Z,99736.00
2022-11-16T14:10:01.157Z,99739.53
2022-11-16T14:12:51.677Z,99739.19
2022-11-16T14:15:32.787Z,99739.47
2022-11-16T14:18:03.271Z,99743.38
2022-11-16T14:20:48.406Z,99731.28
2022-11-16T14:23:24.234Z,99731.34
2022-11-16T14:26:08.660Z,99720.47
2022-11-16T14:29:06.733Z,99721.69
2022-11-16T14:31:52.142Z,99727.50
2022-11-16T14:34:40.501Z,99725.06
2022-11-16T14:37:31.012Z,99725.59
2022-11-16T14:40:18.276Z,99729.69
2022-11-16T14:43:15.341Z,99724.47
2022-11-16T14:45:39.235Z,99721.28
2022-11-16T14:48:16.052Z,99724.75
2022-11-16T14:51:09.899Z,99728.06
2022-11-16T14:53:41.716Z,99725.63
2022-11-16T14:56:11.968Z,99718.88
2022-11-16T14:58:39.747Z,99722.91
2022-11-16T15:01:12.977Z,99712.59
2022-11-16T15:03:56.111Z,99706.44
2022-11-16T15:06:25.885Z,99714.94
2022-11-16T15:08:59.192Z,99718.09
2022-11-16T15:11:52.286Z,99717.69
2022-11-16T15:14:41.332Z,99711.00
2022-11-16T15:17:09.679Z,99721.00
2022-11-16T15:19:36.650Z,99724.19
2022-11-16T15:22:04.288Z,99713.94
2022-11-16T15:24:35.018Z,99703.53
2022-11-16T15:27:38.911Z,99701.34
2022-11-16T15:30:20.333Z,99689.56
2022-11-16T15:32:50.348Z,99700.09
2022-11-16T15:35:24.740Z,99701.34
2022-11-16T15:38:01.939Z,99692.97
2022-11-16T15:40:30.477Z,99686.59
2022-11-16T15:43:04.076Z,99680.28
2022-11-16T15:45:32.996Z,99677.13
2022-11-16T15:48:03.321Z,99688.47
2022-11-16T15:50:30.167Z,99686.44
2022-11-16T15:52:59.598Z,99679.94
2022-11-16T15:55:38.912Z,99663.44
2022-11-16T15:58:18.265Z,99658.84
2022-11-16T16:00:48.550Z,99656.38
2022-11-16T16:03:28.747Z,99643.50
2022-11-16T16:05:56.076Z,99658.53
2022-11-16T16:08:28.579Z,99654.16
2022-11-16T16:11:26.922Z,99662.63
2022-11-16T16:14:02.165Z,99662.66
2022-11-16T16:16:36.765Z,99660.03
2022-11-16T16:19:23.300Z,99648.25
2022-11-16T16:21:50.619Z,99657.13
2022-11-16T16:24:34.622Z,99646.41
2022-11-16T16:27:01.249Z,99639.34
2022-11-16T16:29:28.515Z,99631.97
2022-11-16T16:31:56.250Z,99639.59
2022-11-16T16:34:22.888Z,99633.31
2022-11-16T16:36:49.697Z,99623.13
2022-11-16T16:39:16.528Z,99620.25
2022-11-16T16:41:43.445Z,99619.75
2022-11-16T16:44:15.541Z,99615.28
2022-11-16T16:46:42.181Z,99621.81
2022-11-16T16:49:09.074Z,99622.09
2022-11-16T16:51:35.787Z,99613.41
2022-11-16T16:54:02.462Z,99607.91
2022-11-16T16:56:29.127Z,99610.84
2022-11-16T16:58:55.979Z,99607.91
2022-11-16T17:01:22.705Z,99606.34
2022-11-16T17:03:49.569Z,99599.09
2022-11-16T17:06:16.980Z,99598.81
2022-11-16T17:08:43.831Z,99599.94
2022-11-16T17:11:12.234Z,99603.06
2022-11-16T17:13:39.065Z,99595.16
2022-11-16T17:16:06.107Z,99598.13
2022-11-16T17:18:33.073Z,99600.97
2022-11-16T17:21:04.408Z,99601.03
2022-11-16T17:23:31.415Z,99599.16
2022-11-16T17:25:58.397Z,99599.44
2022-11-16T17:28:25.084Z,99591.06
2022-11-16T17:30:51.918Z,99593.44
2022-11-16T17:33:18.707Z,99582.19
2022-11-16T17:35:54.992Z,99590.81
2022-11-16T17:38:21.651Z,99591.06
2022-11-16T17:40:48.480Z,99591.84
2022-11-16T17:43:15.123Z,99590.53
2022-11-16T17:45:41.836Z,99595.22
2022-11-16T17:48:08.504Z,99582.38
2022-11-16T17:50:35.182Z,99567.34
2022-11-16T17:53:02.043Z,99564.13
2022-11-16T17:55:28.955Z,99567.81
2022-11-16T17:57:56.496Z,99558.34
2022-11-16T18:00:23.262Z,99549.41
2022-11-16T18:02:49.894Z,99549.47
2022-11-16T18:05:16.758Z,99545.56
2022-11-16T18:07:43.646Z,99538.78
2022-11-16T18:10:12.718Z,99538.50
2022-11-16T18:12:43.231Z,99532.50
2022-11-16T18:17:57.344Z,99534.84
2022-11-16T18:20:24.265Z,99538.25
2022-11-16T18:22:50.914Z,99539.34
2022-11-16T18:25:17.730Z,99535.19
2022-11-16T18:27:44.370Z,99538.53
2022-11-16T18:30:11.265Z,99546.88
2022-11-16T18:32:37.976Z,99552.34
2022-11-16T18:35:09.807Z,99546.47
2022-11-16T18:37:36.518Z,99550.91
2022-11-16T18:40:04.377Z,99547.78
2022-11-16T18:42:31.016Z,99548.56
2022-11-16T18:44:57.689Z,99557.44
2022-11-16T18:47:24.408Z,99557.97
2022-11-16T18:49:51.460Z,99553.25
2022-11-16T18:52:18.128Z,99553.03
2022-11-16T18:54:44.783Z,99546.91
2022-11-16T18:57:11.688Z,99542.19
2022-11-16T18:59:38.314Z,99541.91
2022-11-16T19:02:05.231Z,99534.03
2022-11-16T19:04:31.897Z,99533.28
2022-11-16T19:06:58.660Z,99530.25
2022-11-16T19:09:25.494Z,99539.47
2022-11-16T19:11:52.354Z,99538.97
2022-11-16T19:14:19.233Z,99530.78
2022-11-16T19:16:54.141Z,99523.72
2022-11-16T19:19:24.192Z,99515.28
2022-11-16T19:21:51.954Z,99519.03
2022-11-16T19:24:18.657Z,99505.94
2022-11-16T19:26:45.506Z,99501.72
2022-11-16T19:29:12.142Z,99495.72
2022-11-16T19:31:39.010Z,99490.75
2022-11-16T19:34:07.836Z,99490.19
2022-11-16T19:36:36.575Z,99481.53
2022-11-16T19:39:05.462Z,99476.00
2022-11-16T19:41:32.587Z,99473.63
2022-11-16T19:44:01.491Z,99467.63
2022-11-16T19:46:31.195Z,99456.84
2022-11-16T19:48:58.777Z,99461.03
2022-11-16T19:51:28.091Z,99465.25
2022-11-16T19:53:56.089Z,99449.81
2022-11-16T19:56:24.008Z,99447.22
2022-11-16T19:58:51.608Z,99453.75
2022-11-16T20:01:28.633Z,99446.25
2022-11-16T20:03:58.891Z,99438.31
2022-11-16T20:06:31.556Z,99433.81
2022-11-16T20:09:02.058Z,99426.50
2022-11-16T20:11:31.533Z,99418.38
2022-11-16T20:13:59.252Z,99410.00
2022-11-16T20:16:28.297Z,99401.31
2022-11-16T20:18:55.517Z,99407.38
2022-11-16T20:21:22.180Z,99396.94
2022-11-16T20:23:49.780Z,99394.47
2022-11-16T20:26:16.432Z,99395.53
2022-11-16T20:28:43.842Z,99389.47
2022-11-16T20:31:16.707Z,99391.03
2022-11-16T20:33:56.958Z,99383.56
2022-11-16T20:36:26.744Z,99384.03
2022-11-16T20:38:54.256Z,99374.53
2022-11-16T20:41:26.334Z,99380.81
2022-11-16T20:43:54.835Z,99373.56
2022-11-16T20:46:26.728Z,99372.53
2022-11-16T20:48:54.461Z,99371.19
2022-11-16T20:51:21.302Z,99376.44
2022-11-16T20:53:49.441Z,99368.06
2022-11-16T20:56:19.134Z,99355.19
2022-11-16T20:58:46.808Z,99357.56
2022-11-16T21:01:16.741Z,99357.25
2022-11-16T21:03:44.654Z,99351.94
2022-11-16T21:06:13.181Z,99349.38
2022-11-16T21:08:40.989Z,99347.22
2022-11-16T21:11:17.828Z,99330.47
2022-11-16T21:14:04.532Z,99333.38
2022-11-16T21:16:32.129Z,99327.88
2022-11-16T21:19:00.036Z,99322.53
2022-11-16T21:21:27.114Z,99319.38
2022-11-16T21:23:54.799Z,99310.47
2022-11-16T21:26:24.374Z,99313.09
2022-11-16T21:28:51.571Z,99298.84
2022-11-16T21:31:21.421Z,99297.78
2022-11-16T21:33:48.356Z,99292.47
2022-11-16T21:36:17.898Z,99291.91
2022-11-16T21:38:45.488Z,99280.28
2022-11-16T21:41:14.123Z,99271.13
2022-11-16T21:43:41.339Z,99271.38
2022-11-16T21:46:12.583Z,99264.53
2022-11-16T21:48:39.733Z,99255.38
2022-11-16T21:51:12.862Z,99245.31
2022-11-16T21:53:40.163Z,99240.34
2022-11-16T21:56:11.383Z,99238.50
2022-11-16T21:58:42.076Z,99246.22
2022-11-16T22:01:10.555Z,99232.47
2022-11-16T22:03:38.594Z,99237.88
2022-11-16T22:06:26.366Z,99234.41
2022-11-16T22:08:53.250Z,99221.97
2022-11-16T22:11:21.965Z,99215.38
2022-11-16T22:13:50.222Z,99212.69
2022-11-16T22:16:20.013Z,99207.78
2022-11-16T22:18:46.830Z,99204.88
2022-11-16T22:21:13.652Z,99194.88
2022-11-16T22:23:40.685Z,99193.44
2022-11-16T22:26:10.402Z,99192.38
2022-11-16T22:28:38.398Z,99181.63
2022-11-16T22:31:07.969Z,99190.53
2022-11-16T22:33:35.229Z,99180.72
2022-11-16T22:36:03.165Z,99173.94
2022-11-16T22:38:30.206Z,99178.03
2022-11-16T22:40:57.760Z,99162.97
2022-11-16T22:43:27.676Z,99157.53
2022-11-16T22:45:58.895Z,99158.69
2022-11-16T22:48:37.756Z,99145.44
2022-11-16T22:51:25.864Z,99146.53
2022-11-16T22:53:54.278Z,99136.88
2022-11-16T22:56:21.318Z,99122.00
2022-11-16T22:58:48.229Z,99115.00
2022-11-16T23:01:14.886Z,99107.50
2022-11-16T23:03:41.926Z,99099.03
2022-11-16T23:06:08.788Z,99090.59
2022-11-16T23:08:36.155Z,99085.91
2022-11-16T23:11:33.140Z,99077.72
2022-11-16T23:14:19.238Z,99074.13
2022-11-16T23:16:46.938Z,99077.91
2022-11-16T23:19:35.072Z,99066.53
2022-11-16T23:22:20.913Z,99057.69
2022-11-16T23:25:06.318Z,99046.13
2022-11-16T23:27:45.191Z,99034.06
2022-11-16T23:30:13.058Z,99031.44
2022-11-16T23:32:40.437Z,99022.50
2022-11-16T23:35:07.712Z,99009.94
2022-11-16T23:37:34.780Z,99004.22
2022-11-16T23:40:01.411Z,98990.03
2022-11-16T23:42:46.811Z,98982.06
2022-11-16T23:45:13.694Z,98970.00
2022-11-16T23:47:40.348Z,98962.22
2022-11-16T23:50:07.413Z,98935.97
2022-11-16T23:52:34.260Z,98924.91
2022-11-16T23:55:00.913Z,98922.47
2022-11-16T23:57:27.760Z,98908.00
2022-11-16T23:59:54.617Z,98896.22
